Terminal Aerodrome Forecast
Issued by NWS

Home | Current Version | Previous Version | Text Only | Print | Product List | Glossary On
Versions: 1 2 3 4 5 6 7 8 9 10 11 12 13 14 15 16 17
000
FTUS44 KLUB 291018 AAA
TAFCDS
TAF AMD
KCDS 291018Z 2910/3006 08012G18KT P6SM OVC022
      TEMPO 2911/2915 4SM -TSRA BKN008CB
     FM291500 17011KT P6SM SCT030 BKN300
     FM292000 21016G26KT P6SM FEW070 SCT300=

USA.gov is the U.S. government's official web portal to all federal, state and local government web resources and services.